Time;durP1;ratioP1;P1;durP2;ratioP2;P2;SDS_P1;SDS_P2;PMS_P1;PMS_P2;Temp;Humidity;BMP_temperature;BMP_pressure;BME280_temperature;BME280_humidity;BME280_pressure;Samples;Min_cycle;Max_cycle;Signal;HPM_P1;HPM_P2
2022/05/02 00:00:47;;;;;;;12.47;10.87;;;;;;;;;;5053455;28;20508;-64
2022/05/02 00:03:13;;;;;;;11.60;10.40;;;;;;;;;;5053302;28;20413;-63
2022/05/02 00:05:40;;;;;;;11.50;10.30;;;;;;;;;;5053250;28;20528;-63
2022/05/02 00:08:06;;;;;;;12.87;9.90;;;;;;;;;;5053369;28;20494;-67
2022/05/02 00:10:33;;;;;;;13.90;10.83;;;;;;;;;;5053264;28;20952;-64
2022/05/02 00:13:00;;;;;;;16.77;12.77;;;;;;;;;;5053156;28;20401;-63
2022/05/02 00:15:27;;;;;;;14.47;11.07;;;;;;;;;;5053297;28;20409;-64
2022/05/02 00:17:59;;;;;;;13.23;9.73;;;;;;;;;;5053210;28;20417;-65
2022/05/02 00:20:31;;;;;;;13.37;10.57;;;;;;;;;;5053249;28;20901;-63
2022/05/02 00:22:58;;;;;;;14.50;10.93;;;;;;;;;;5053239;28;20877;-62
2022/05/02 00:25:24;;;;;;;14.30;10.67;;;;;;;;;;5053158;28;20432;-64
2022/05/02 00:27:50;;;;;;;13.17;10.37;;;;;;;;;;5053040;28;20468;-62
2022/05/02 00:30:16;;;;;;;13.80;10.40;;;;;;;;;;5053029;28;20489;-66
2022/05/02 00:32:42;;;;;;;12.13;10.40;;;;;;;;;;5052432;28;20471;-62
2022/05/02 00:35:09;;;;;;;13.10;10.53;;;;;;;;;;5053054;28;20444;-62
2022/05/02 00:37:35;;;;;;;13.40;11.00;;;;;;;;;;5052989;28;20815;-63
2022/05/02 00:40:01;;;;;;;13.40;11.00;;;;;;;;;;5053034;28;20426;-62
2022/05/02 00:42:28;;;;;;;14.50;10.47;;;;;;;;;;5052994;28;20904;-63
2022/05/02 00:44:54;;;;;;;12.83;11.40;;;;;;;;;;5052956;28;20408;-63
2022/05/02 00:47:20;;;;;;;14.57;11.40;;;;;;;;;;5052994;28;20489;-63
2022/05/02 00:49:48;;;;;;;12.30;10.93;;;;;;;;;;5052851;28;20497;-64
2022/05/02 00:52:15;;;;;;;12.63;10.00;;;;;;;;;;5052666;28;20919;-62
2022/05/02 00:54:42;;;;;;;13.50;10.30;;;;;;;;;;5052861;28;20768;-62
2022/05/02 00:57:08;;;;;;;13.93;11.70;;;;;;;;;;5052800;28;20390;-63
2022/05/02 00:59:37;;;;;;;15.33;11.97;;;;;;;;;;5052780;28;20461;-63
2022/05/02 01:02:04;;;;;;;12.77;9.73;;;;;;;;;;5052647;28;20431;-65
2022/05/02 01:04:30;;;;;;;15.63;11.10;;;;;;;;;;5052693;28;20932;-62
2022/05/02 01:07:12;;;;;;;12.43;10.60;;;;;;;;;;5052650;28;20460;-64
2022/05/02 01:09:38;;;;;;;13.63;10.17;;;;;;;;;;5052769;28;20460;-64
2022/05/02 01:12:05;;;;;;;14.00;9.87;;;;;;;;;;5034716;28;20462;-64
2022/05/02 01:14:35;;;;;;;12.03;9.70;;;;;;;;;;5052683;28;20510;-62
2022/05/02 01:17:01;;;;;;;12.83;9.73;;;;;;;;;;5034790;28;20978;-64
2022/05/02 01:19:27;;;;;;;12.10;9.50;;;;;;;;;;5052703;28;20503;-63
2022/05/02 01:21:53;;;;;;;11.10;9.30;;;;;;;;;;5052394;28;20928;-63
2022/05/02 01:24:19;;;;;;;11.10;9.90;;;;;;;;;;5052594;28;20852;-62
2022/05/02 01:26:45;;;;;;;13.70;10.13;;;;;;;;;;5052554;28;20406;-64
2022/05/02 01:29:11;;;;;;;11.00;9.90;;;;;;;;;;5052542;28;20510;-63
2022/05/02 01:31:37;;;;;;;14.27;11.03;;;;;;;;;;5052325;28;20420;-63
2022/05/02 01:34:03;;;;;;;11.07;9.90;;;;;;;;;;5052406;28;20812;-62
2022/05/02 01:36:30;;;;;;;11.90;10.00;;;;;;;;;;5034512;28;20464;-63
2022/05/02 01:38:56;;;;;;;12.67;10.00;;;;;;;;;;5052492;28;20504;-63
2022/05/02 01:41:22;;;;;;;12.57;10.00;;;;;;;;;;5052503;28;20793;-63
2022/05/02 01:43:48;;;;;;;11.00;9.83;;;;;;;;;;5053827;28;20463;-61
2022/05/02 01:46:14;;;;;;;12.93;10.10;;;;;;;;;;5055968;28;20893;-62
2022/05/02 01:48:40;;;;;;;12.03;10.30;;;;;;;;;;5055927;28;20464;-61
2022/05/02 01:51:06;;;;;;;17.70;10.90;;;;;;;;;;5055825;28;20402;-62
2022/05/02 01:53:32;;;;;;;11.60;10.37;;;;;;;;;;5055789;28;20419;-61
2022/05/02 01:55:58;;;;;;;12.13;10.50;;;;;;;;;;5055790;28;20899;-62
2022/05/02 01:58:25;;;;;;;12.40;10.20;;;;;;;;;;5038007;28;20763;-63
2022/05/02 02:00:51;;;;;;;13.40;10.43;;;;;;;;;;5055744;28;20409;-63
2022/05/02 02:03:17;;;;;;;11.53;9.47;;;;;;;;;;5055482;28;20811;-61
2022/05/02 02:05:49;;;;;;;12.00;10.73;;;;;;;;;;5055374;28;20465;-62
2022/05/02 02:08:27;;;;;;;13.90;10.87;;;;;;;;;;5055670;28;21004;-63
2022/05/02 02:11:14;;;;;;;12.60;9.93;;;;;;;;;;5055477;28;20417;-62
2022/05/02 02:13:41;;;;;;;15.00;10.97;;;;;;;;;;5055503;28;20398;-62
2022/05/02 02:16:11;;;;;;;14.63;11.00;;;;;;;;;;5055469;28;20948;-62
2022/05/02 02:18:38;;;;;;;12.00;10.33;;;;;;;;;;5055489;28;20390;-63
2022/05/02 02:21:04;;;;;;;12.50;10.50;;;;;;;;;;5055317;28;20493;-63
2022/05/02 02:23:31;;;;;;;13.83;10.97;;;;;;;;;;5055212;28;20971;-64
2022/05/02 02:25:57;;;;;;;14.30;11.30;;;;;;;;;;5055308;28;20436;-64
2022/05/02 02:28:23;;;;;;;14.83;10.30;;;;;;;;;;5055226;28;20510;-64
2022/05/02 02:30:49;;;;;;;11.40;9.60;;;;;;;;;;5054534;28;20824;-63
2022/05/02 02:33:15;;;;;;;13.23;10.60;;;;;;;;;;5055111;28;20493;-62
2022/05/02 02:35:41;;;;;;;13.53;10.30;;;;;;;;;;5054831;28;20452;-63
2022/05/02 02:38:12;;;;;;;12.60;10.63;;;;;;;;;;5055108;28;20479;-63
2022/05/02 02:40:39;;;;;;;13.70;10.50;;;;;;;;;;5054981;28;20495;-63
2022/05/02 02:43:06;;;;;;;15.73;10.93;;;;;;;;;;5037001;28;20453;-63
2022/05/02 02:45:32;;;;;;;12.20;10.73;;;;;;;;;;5054895;28;20417;-63
2022/05/02 02:47:58;;;;;;;14.03;11.07;;;;;;;;;;5054775;28;20469;-63
2022/05/02 02:50:24;;;;;;;13.23;11.07;;;;;;;;;;5054698;28;20508;-62
2022/05/02 02:52:50;;;;;;;11.37;10.17;;;;;;;;;;5036743;28;20444;-62
2022/05/02 02:55:16;;;;;;;13.00;10.70;;;;;;;;;;5054294;28;20413;-63
2022/05/02 02:57:42;;;;;;;13.83;11.10;;;;;;;;;;5054545;28;20477;-61
2022/05/02 03:00:08;;;;;;;13.83;11.17;;;;;;;;;;5054568;28;20417;-63
2022/05/02 03:02:41;;;;;;;14.80;10.90;;;;;;;;;;5054514;28;20406;-65
2022/05/02 03:07:52;;;;;;;12.90;11.10;;;;;;;;;;5054467;28;20452;-62
2022/05/02 03:10:18;;;;;;;14.20;10.43;;;;;;;;;;5054423;28;20410;-61
2022/05/02 03:12:44;;;;;;;12.87;11.13;;;;;;;;;;5054366;28;20416;-63
2022/05/02 03:15:10;;;;;;;11.77;9.80;;;;;;;;;;5054313;28;20401;-62
2022/05/02 03:17:36;;;;;;;11.07;9.90;;;;;;;;;;5054272;28;20410;-63
2022/05/02 03:20:02;;;;;;;13.17;10.30;;;;;;;;;;5054213;28;20448;-63
2022/05/02 03:22:28;;;;;;;12.13;10.83;;;;;;;;;;5036273;28;20766;-62
2022/05/02 03:24:54;;;;;;;14.83;12.00;;;;;;;;;;5054060;28;20421;-62
2022/05/02 03:27:20;;;;;;;13.47;11.13;;;;;;;;;;5053997;28;20415;-62
2022/05/02 03:29:46;;;;;;;11.83;9.97;;;;;;;;;;5053887;28;20472;-62
2022/05/02 03:32:12;;;;;;;12.40;10.80;;;;;;;;;;5053866;28;20401;-62
2022/05/02 03:34:38;;;;;;;12.90;10.33;;;;;;;;;;5053797;28;20882;-62
2022/05/02 03:37:04;;;;;;;12.27;10.07;;;;;;;;;;5053929;28;20412;-63
2022/05/02 03:39:30;;;;;;;13.70;10.90;;;;;;;;;;5053860;28;20517;-62
2022/05/02 03:41:56;;;;;;;16.40;12.20;;;;;;;;;;5053727;28;20492;-62
2022/05/02 03:44:22;;;;;;;13.97;11.17;;;;;;;;;;5053795;28;20914;-63
2022/05/02 03:46:48;;;;;;;16.03;11.77;;;;;;;;;;5053777;28;20421;-62
2022/05/02 03:49:14;;;;;;;14.50;11.17;;;;;;;;;;5053466;28;20481;-67
2022/05/02 03:51:40;;;;;;;12.67;11.37;;;;;;;;;;5053628;28;20397;-62
2022/05/02 03:54:07;;;;;;;14.50;11.30;;;;;;;;;;5053581;28;20402;-62
2022/05/02 03:56:33;;;;;;;12.37;10.90;;;;;;;;;;5053603;28;20477;-62
2022/05/02 03:58:59;;;;;;;16.80;13.27;;;;;;;;;;5053427;28;20820;-62
2022/05/02 04:01:25;;;;;;;16.87;12.40;;;;;;;;;;5053539;28;20398;-63
2022/05/02 04:03:51;;;;;;;18.40;14.07;;;;;;;;;;5053410;28;20422;-62
2022/05/02 04:06:17;;;;;;;22.73;16.63;;;;;;;;;;5052395;28;20498;-62
2022/05/02 04:08:43;;;;;;;23.33;15.97;;;;;;;;;;5053161;28;20508;-66
2022/05/02 04:11:09;;;;;;;18.30;14.90;;;;;;;;;;5053313;28;20492;-66
2022/05/02 04:13:35;;;;;;;14.43;11.73;;;;;;;;;;5035562;28;20410;-63
2022/05/02 04:16:01;;;;;;;17.50;11.57;;;;;;;;;;5053264;28;20424;-63
2022/05/02 04:18:27;;;;;;;14.80;12.07;;;;;;;;;;5053215;28;20417;-68
2022/05/02 04:20:53;;;;;;;15.13;12.40;;;;;;;;;;5053202;28;20412;-64
2022/05/02 04:23:19;;;;;;;14.93;11.50;;;;;;;;;;5053125;28;20410;-64
2022/05/02 04:25:45;;;;;;;14.37;11.03;;;;;;;;;;5053183;28;20772;-67
2022/05/02 04:28:12;;;;;;;15.03;12.67;;;;;;;;;;5053088;28;20553;-65
2022/05/02 04:30:38;;;;;;;17.73;12.57;;;;;;;;;;5035260;28;20441;-65
2022/05/02 04:33:04;;;;;;;15.33;12.53;;;;;;;;;;5053095;28;20408;-64
2022/05/02 04:35:30;;;;;;;16.30;12.30;;;;;;;;;;5052929;28;20917;-63
2022/05/02 04:37:58;;;;;;;14.60;13.00;;;;;;;;;;5052960;28;20436;-64
2022/05/02 04:40:24;;;;;;;13.80;12.23;;;;;;;;;;5052986;28;20401;-65
2022/05/02 04:42:50;;;;;;;18.77;12.23;;;;;;;;;;5052816;28;20912;-63
2022/05/02 04:45:16;;;;;;;14.73;12.10;;;;;;;;;;5035163;28;20402;-63
2022/05/02 04:47:42;;;;;;;14.30;12.00;;;;;;;;;;5052860;28;20409;-64
2022/05/02 04:50:08;;;;;;;14.83;11.87;;;;;;;;;;5052835;28;20434;-63
2022/05/02 04:52:34;;;;;;;16.30;12.90;;;;;;;;;;5052798;28;20401;-64
2022/05/02 04:55:00;;;;;;;16.23;12.93;;;;;;;;;;5052682;28;20397;-61
2022/05/02 04:57:27;;;;;;;17.00;13.57;;;;;;;;;;5052829;28;20443;-61
2022/05/02 04:59:53;;;;;;;15.60;13.40;;;;;;;;;;5052879;28;20492;-61
2022/05/02 05:02:19;;;;;;;15.07;12.23;;;;;;;;;;5052740;28;20437;-62
2022/05/02 05:04:45;;;;;;;14.90;13.07;;;;;;;;;;5052652;28;20429;-62
2022/05/02 05:07:11;;;;;;;16.97;13.53;;;;;;;;;;5052364;28;20996;-61
2022/05/02 05:09:37;;;;;;;18.07;14.80;;;;;;;;;;5052474;28;20568;-63
2022/05/02 05:12:23;;;;;;;15.50;13.70;;;;;;;;;;5052551;28;20400;-62
2022/05/02 05:18:07;;;;;;;17.63;13.67;;;;;;;;;;5054562;28;20412;-62
2022/05/02 05:20:33;;;;;;;15.30;11.73;;;;;;;;;;5056400;28;20412;-62
2022/05/02 05:23:08;;;;;;;16.23;12.67;;;;;;;;;;5056204;28;20406;-61
2022/05/02 05:25:43;;;;;;;23.33;13.27;;;;;;;;;;5056130;28;20496;-63
2022/05/02 05:28:13;;;;;;;17.63;12.97;;;;;;;;;;5056196;28;20783;-62
2022/05/02 05:30:43;;;;;;;17.23;13.47;;;;;;;;;;5056252;28;20433;-63
2022/05/02 05:33:17;;;;;;;17.17;13.70;;;;;;;;;;5056229;28;20922;-64
2022/05/02 05:35:43;;;;;;;17.83;13.93;;;;;;;;;;5056077;28;20421;-63
2022/05/02 05:38:23;;;;;;;16.13;13.17;;;;;;;;;;5056155;28;20420;-63
2022/05/02 05:40:54;;;;;;;17.57;13.30;;;;;;;;;;5056075;28;20484;-63
2022/05/02 05:43:24;;;;;;;17.63;14.10;;;;;;;;;;5056046;28;20409;-62
2022/05/02 05:45:50;;;;;;;16.23;13.63;;;;;;;;;;5055986;28;20434;-62
2022/05/02 05:48:34;;;;;;;16.40;13.23;;;;;;;;;;5055762;28;20515;-61
2022/05/02 05:51:00;;;;;;;20.00;15.63;;;;;;;;;;5055864;28;20416;-61
2022/05/02 05:53:29;;;;;;;18.67;14.10;;;;;;;;;;5055856;28;20409;-63
2022/05/02 05:56:15;;;;;;;20.33;14.93;;;;;;;;;;5055616;28;20414;-62
2022/05/02 05:59:00;;;;;;;18.67;15.23;;;;;;;;;;5055710;28;20891;-62
2022/05/02 06:01:44;;;;;;;19.80;14.50;;;;;;;;;;5055678;28;20435;-61
2022/05/02 06:04:10;;;;;;;19.37;14.93;;;;;;;;;;5037652;28;20447;-61
2022/05/02 06:06:36;;;;;;;22.57;17.37;;;;;;;;;;5055363;28;20465;-61
2022/05/02 06:09:03;;;;;;;20.70;16.07;;;;;;;;;;5075277;28;20456;-61
2022/05/02 06:11:30;;;;;;;24.03;15.70;;;;;;;;;;5075372;28;20896;-62
2022/05/02 06:13:57;;;;;;;24.80;16.60;;;;;;;;;;5075399;28;20400;-62
2022/05/02 06:19:17;;;;;;;23.23;17.20;;;;;;;;;;5075466;28;20519;-62
2022/05/02 06:21:46;;;;;;;24.10;16.67;;;;;;;;;;5075251;28;20892;-61
2022/05/02 06:24:14;;;;;;;23.93;17.87;;;;;;;;;;5075194;28;20409;-61
2022/05/02 06:26:41;;;;;;;24.00;16.70;;;;;;;;;;5075062;28;20405;-61
2022/05/02 06:29:08;;;;;;;23.03;16.67;;;;;;;;;;5074160;28;20976;-61
2022/05/02 06:31:39;;;;;;;24.40;18.30;;;;;;;;;;5075056;28;20501;-61
2022/05/02 06:34:06;;;;;;;23.77;17.73;;;;;;;;;;5074990;28;20420;-61
2022/05/02 06:36:42;;;;;;;25.80;18.73;;;;;;;;;;5074958;28;20894;-61
2022/05/02 06:39:08;;;;;;;24.70;19.00;;;;;;;;;;5075008;28;20411;-61
2022/05/02 06:41:53;;;;;;;26.00;17.70;;;;;;;;;;5074870;28;20400;-61
2022/05/02 06:44:37;;;;;;;23.20;18.30;;;;;;;;;;5074777;28;20412;-61
2022/05/02 06:47:06;;;;;;;26.63;18.23;;;;;;;;;;5074805;28;20412;-61
2022/05/02 06:49:36;;;;;;;23.73;18.67;;;;;;;;;;5074566;28;21026;-62
2022/05/02 06:52:06;;;;;;;26.07;18.43;;;;;;;;;;5074624;28;20515;-61
2022/05/02 06:54:51;;;;;;;27.10;19.27;;;;;;;;;;5074674;28;20409;-62
2022/05/02 06:57:17;;;;;;;24.27;17.67;;;;;;;;;;5074557;28;20416;-61
2022/05/02 07:00:02;;;;;;;28.73;19.50;;;;;;;;;;5074562;28;20396;-61
2022/05/02 07:02:35;;;;;;;23.80;18.83;;;;;;;;;;5074449;28;20914;-62
2022/05/02 07:05:06;;;;;;;24.20;18.20;;;;;;;;;;5074401;28;20417;-63
2022/05/02 07:07:32;;;;;;;23.07;17.43;;;;;;;;;;5056015;28;20972;-64
2022/05/02 07:10:18;;;;;;;21.20;16.60;;;;;;;;;;5054171;28;20571;-67
2022/05/02 07:12:50;;;;;;;25.43;18.30;;;;;;;;;;5054241;28;21007;-67
2022/05/02 07:15:24;;;;;;;23.37;17.40;;;;;;;;;;5054212;28;20413;-63
2022/05/02 07:17:53;;;;;;;22.80;18.20;;;;;;;;;;5036327;28;20420;-63
2022/05/02 07:20:19;;;;;;;25.77;18.20;;;;;;;;;;5054196;28;20420;-61
2022/05/02 07:22:54;;;;;;;29.53;17.13;;;;;;;;;;5054086;28;20405;-66
2022/05/02 07:25:21;;;;;;;25.43;18.23;;;;;;;;;;5053936;28;20413;-63
2022/05/02 07:27:50;;;;;;;24.20;18.00;;;;;;;;;;5053854;28;20451;-62
2022/05/02 07:30:17;;;;;;;27.90;18.97;;;;;;;;;;5053669;28;20429;-62
2022/05/02 07:32:44;;;;;;;24.20;18.37;;;;;;;;;;5053826;28;20405;-62
2022/05/02 07:35:10;;;;;;;24.23;17.73;;;;;;;;;;5054060;28;20828;-64
2022/05/02 07:37:37;;;;;;;27.00;18.73;;;;;;;;;;5053815;28;20433;-64
2022/05/02 07:40:05;;;;;;;24.63;18.10;;;;;;;;;;5053724;28;20501;-63
2022/05/02 07:42:31;;;;;;;26.40;19.00;;;;;;;;;;5053616;28;20416;-63
2022/05/02 07:45:00;;;;;;;25.33;18.80;;;;;;;;;;5053803;28;20512;-66
2022/05/02 07:47:28;;;;;;;24.57;18.73;;;;;;;;;;5053702;28;20445;-64
2022/05/02 07:49:55;;;;;;;23.93;18.63;;;;;;;;;;5053480;28;20457;-63
2022/05/02 07:52:24;;;;;;;28.50;19.00;;;;;;;;;;5053486;28;20429;-66
2022/05/02 07:54:50;;;;;;;21.13;16.90;;;;;;;;;;5053380;28;20429;-62
2022/05/02 07:57:16;;;;;;;24.20;18.50;;;;;;;;;;5053351;28;20449;-63
2022/05/02 07:59:44;;;;;;;23.40;17.97;;;;;;;;;;5053535;28;20806;-64
2022/05/02 08:02:10;;;;;;;22.43;18.07;;;;;;;;;;5053348;28;20409;-63
2022/05/02 08:04:37;;;;;;;31.20;18.87;;;;;;;;;;5053276;28;20508;-63
2022/05/02 08:07:11;;;;;;;22.63;18.17;;;;;;;;;;5052992;28;21003;-62
2022/05/02 08:09:57;;;;;;;25.60;18.20;;;;;;;;;;5052850;28;20889;-61
2022/05/02 08:12:28;;;;;;;24.80;18.70;;;;;;;;;;5053101;28;20536;-61
2022/05/02 08:15:08;;;;;;;23.17;17.43;;;;;;;;;;5053185;28;20475;-61
2022/05/02 08:17:34;;;;;;;21.90;17.27;;;;;;;;;;5053134;28;20538;-62
2022/05/02 08:20:00;;;;;;;22.73;17.60;;;;;;;;;;5053154;28;20425;-62
2022/05/02 08:28:09;;;;;;;26.03;18.83;;;;;;;;;;5053040;28;20938;-62
2022/05/02 08:30:48;;;;;;;26.10;17.43;;;;;;;;;;5052873;28;20409;-63
2022/05/02 08:33:20;;;;;;;22.87;17.27;;;;;;;;;;5052957;28;20900;-63
2022/05/02 08:36:12;;;;;;;27.07;18.10;;;;;;;;;;5052969;28;20532;-63
2022/05/02 08:38:44;;;;;;;22.80;16.40;;;;;;;;;;5022243;28;20413;-62
2022/05/02 08:41:28;;;;;;;24.90;17.67;;;;;;;;;;5052782;28;20488;-64
2022/05/02 08:44:13;;;;;;;24.53;17.40;;;;;;;;;;5052797;28;21202;-63
2022/05/02 08:46:54;;;;;;;26.30;16.60;;;;;;;;;;5034935;28;20428;-62
2022/05/02 08:49:36;;;;;;;19.20;14.93;;;;;;;;;;5052703;28;20542;-61
2022/05/02 08:52:21;;;;;;;18.93;15.60;;;;;;;;;;5053291;28;20382;-63
2022/05/02 08:54:50;;;;;;;19.73;14.60;;;;;;;;;;5056875;28;20466;-62
2022/05/02 08:57:34;;;;;;;23.70;16.03;;;;;;;;;;5056955;28;20815;-62
2022/05/02 09:00:05;;;;;;;18.57;15.60;;;;;;;;;;5056760;28;20492;-63
2022/05/02 09:02:47;;;;;;;20.27;15.40;;;;;;;;;;5056756;28;20413;-63
2022/05/02 09:05:26;;;;;;;19.40;14.50;;;;;;;;;;5056527;28;20429;-62
2022/05/02 09:08:11;;;;;;;19.37;13.67;;;;;;;;;;5056576;28;20755;-62
2022/05/02 09:10:56;;;;;;;19.57;15.13;;;;;;;;;;5056473;28;20547;-64
2022/05/02 09:13:37;;;;;;;19.90;14.90;;;;;;;;;;5038436;28;20410;-62
2022/05/02 09:16:06;;;;;;;17.90;14.53;;;;;;;;;;5056524;28;20444;-68
2022/05/02 09:18:51;;;;;;;19.43;15.23;;;;;;;;;;5056450;28;20406;-62
2022/05/02 09:21:36;;;;;;;18.60;14.63;;;;;;;;;;5056278;28;20504;-63
2022/05/02 09:24:02;;;;;;;17.17;13.10;;;;;;;;;;5056352;28;20488;-64
2022/05/02 09:26:40;;;;;;;24.00;17.10;;;;;;;;;;5056265;28;20488;-64
2022/05/02 09:29:06;;;;;;;21.10;16.13;;;;;;;;;;5056081;28;20482;-62
2022/05/02 09:31:35;;;;;;;20.53;16.10;;;;;;;;;;5056126;28;20967;-63
2022/05/02 09:34:19;;;;;;;20.57;15.47;;;;;;;;;;5056144;28;20409;-63
2022/05/02 09:36:58;;;;;;;16.77;14.87;;;;;;;;;;5056063;28;20416;-65
2022/05/02 09:39:25;;;;;;;20.23;14.97;;;;;;;;;;5055804;28;20389;-67
2022/05/02 09:42:02;;;;;;;19.17;14.97;;;;;;;;;;5055809;28;20467;-65
2022/05/02 09:50:27;;;;;;;15.30;12.93;;;;;;;;;;5055805;28;20424;-66
2022/05/02 09:53:13;;;;;;;17.27;13.10;;;;;;;;;;5055671;28;20748;-63
2022/05/02 09:58:37;;;;;;;16.43;12.43;;;;;;;;;;5055745;28;20792;-63
2022/05/02 10:01:11;;;;;;;15.27;12.00;;;;;;;;;;5055601;28;20968;-63
2022/05/02 10:03:53;;;;;;;14.60;12.40;;;;;;;;;;5054711;28;20401;-65
2022/05/02 10:06:22;;;;;;;18.03;12.40;;;;;;;;;;5055342;28;20460;-67
2022/05/02 10:08:53;;;;;;;14.20;12.40;;;;;;;;;;5055261;28;20476;-63
2022/05/02 10:11:32;;;;;;;13.40;11.33;;;;;;;;;;5055392;28;20950;-63
2022/05/02 10:14:11;;;;;;;13.80;11.23;;;;;;;;;;5055474;28;20459;-62
2022/05/02 10:16:46;;;;;;;12.47;10.90;;;;;;;;;;5055397;28;20489;-62
2022/05/02 10:19:31;;;;;;;13.63;11.37;;;;;;;;;;5055161;28;20451;-63
2022/05/02 10:21:57;;;;;;;14.87;11.17;;;;;;;;;;5055195;28;20895;-63
2022/05/02 10:24:41;;;;;;;12.37;10.43;;;;;;;;;;5055118;28;20398;-64
2022/05/02 10:27:25;;;;;;;11.53;10.03;;;;;;;;;;5055281;28;20904;-66
2022/05/02 10:30:04;;;;;;;15.73;11.40;;;;;;;;;;5054943;28;20472;-64
2022/05/02 10:32:53;;;;;;;13.33;11.70;;;;;;;;;;5054916;28;20425;-62
2022/05/02 10:35:21;;;;;;;14.73;11.30;;;;;;;;;;5055049;28;20430;-64
2022/05/02 10:37:50;;;;;;;12.10;10.90;;;;;;;;;;5054931;28;20393;-63
2022/05/02 10:40:17;;;;;;;12.37;11.07;;;;;;;;;;5037025;28;20413;-63
2022/05/02 10:42:49;;;;;;;15.07;11.97;;;;;;;;;;5054769;28;20453;-66
2022/05/02 10:45:15;;;;;;;13.00;10.60;;;;;;;;;;5054709;28;20436;-64
2022/05/02 10:47:48;;;;;;;13.17;10.40;;;;;;;;;;5054722;28;20456;-65
2022/05/02 10:50:18;;;;;;;10.23;9.23;;;;;;;;;;5054658;28;20999;-64
2022/05/02 10:52:47;;;;;;;13.00;8.83;;;;;;;;;;5054463;28;20956;-63
2022/05/02 10:55:19;;;;;;;11.27;9.57;;;;;;;;;;5054516;28;20459;-63
2022/05/02 10:57:56;;;;;;;10.77;9.60;;;;;;;;;;5054626;28;20405;-64
2022/05/02 11:00:23;;;;;;;11.10;10.00;;;;;;;;;;5054451;28;20436;-63
2022/05/02 11:02:54;;;;;;;9.10;8.20;;;;;;;;;;5054385;28;20978;-64
2022/05/02 11:05:26;;;;;;;10.17;9.10;;;;;;;;;;5054246;28;20516;-63
2022/05/02 11:07:58;;;;;;;9.73;8.43;;;;;;;;;;5054263;28;20456;-63
2022/05/02 11:10:35;;;;;;;9.00;7.60;;;;;;;;;;5054242;28;20405;-64
2022/05/02 11:13:01;;;;;;;9.00;8.10;;;;;;;;;;5054111;28;20466;-63
2022/05/02 11:15:31;;;;;;;9.93;8.93;;;;;;;;;;5053873;28;20480;-67
2022/05/02 11:20:41;;;;;;;9.00;7.80;;;;;;;;;;5036277;28;20905;-63
2022/05/02 11:21:03;;;;;;;7.70;6.93;;;;;;;;;;5053958;28;20814;-63
2022/05/02 11:23:39;;;;;;;7.63;6.60;;;;;;;;;;5054103;28;20405;-61
2022/05/02 11:26:05;;;;;;;7.73;6.93;;;;;;;;;;5054132;28;20438;-64
2022/05/02 11:28:49;;;;;;;7.43;6.60;;;;;;;;;;5053743;28;20489;-64
2022/05/02 11:31:19;;;;;;;8.37;7.57;;;;;;;;;;5053766;28;20413;-63
2022/05/02 11:33:54;;;;;;;11.70;6.40;;;;;;;;;;5053688;28;20413;-63
2022/05/02 11:36:24;;;;;;;8.33;7.10;;;;;;;;;;5053784;28;20389;-64
2022/05/02 11:39:03;;;;;;;7.10;6.40;;;;;;;;;;5035807;28;20406;-62
2022/05/02 11:41:29;;;;;;;8.20;7.40;;;;;;;;;;5053647;28;20401;-63
2022/05/02 11:44:22;;;;;;;11.10;8.57;;;;;;;;;;5053589;28;20414;-62
2022/05/02 11:47:06;;;;;;;9.57;8.57;;;;;;;;;;5049900;28;20421;-64
2022/05/02 11:49:51;;;;;;;10.13;9.07;;;;;;;;;;5053312;28;20500;-62
2022/05/02 11:52:25;;;;;;;8.33;7.47;;;;;;;;;;5053410;28;20457;-63
2022/05/02 11:54:56;;;;;;;9.77;8.07;;;;;;;;;;5053465;28;20437;-62
2022/05/02 11:57:28;;;;;;;9.70;8.90;;;;;;;;;;5053651;28;20481;-63
2022/05/02 11:59:58;;;;;;;10.10;8.23;;;;;;;;;;5053480;28;20444;-63
2022/05/02 12:02:27;;;;;;;8.67;7.53;;;;;;;;;;5053375;28;20405;-62
2022/05/02 12:04:58;;;;;;;8.00;7.07;;;;;;;;;;5053305;28;20422;-62
2022/05/02 12:07:33;;;;;;;8.83;7.87;;;;;;;;;;5053306;28;20980;-62
2022/05/02 12:10:07;;;;;;;8.97;8.13;;;;;;;;;;5052988;28;20464;-62
2022/05/02 12:12:33;;;;;;;10.93;8.43;;;;;;;;;;5053102;28;20493;-62
2022/05/02 12:15:04;;;;;;;8.10;7.40;;;;;;;;;;5053116;28;20394;-61
2022/05/02 12:17:30;;;;;;;10.70;9.40;;;;;;;;;;5053168;28;20418;-62
2022/05/02 12:19:57;;;;;;;10.17;8.90;;;;;;;;;;5053119;28;20401;-63
2022/05/02 12:22:27;;;;;;;8.57;7.77;;;;;;;;;;5053010;28;20424;-63
2022/05/02 12:24:55;;;;;;;9.70;8.70;;;;;;;;;;5053090;28;20456;-63
2022/05/02 12:27:22;;;;;;;7.67;6.97;;;;;;;;;;5034483;28;20421;-63
2022/05/02 12:29:58;;;;;;;8.30;7.43;;;;;;;;;;5052742;28;20484;-66
2022/05/02 12:32:30;;;;;;;8.13;7.33;;;;;;;;;;5052921;28;20409;-64
2022/05/02 12:34:57;;;;;;;8.17;7.37;;;;;;;;;;5052904;28;20433;-64
2022/05/02 12:37:33;;;;;;;8.10;6.50;;;;;;;;;;5051909;28;20979;-63
2022/05/02 12:40:03;;;;;;;7.63;6.83;;;;;;;;;;5035281;28;20753;-66
2022/05/02 12:42:36;;;;;;;7.53;6.83;;;;;;;;;;5052859;28;20543;-63
2022/05/02 12:45:03;;;;;;;6.60;6.00;;;;;;;;;;5052922;28;20447;-64
2022/05/02 12:47:47;;;;;;;7.10;6.50;;;;;;;;;;5052883;28;20397;-64
2022/05/02 12:50:17;;;;;;;7.13;6.43;;;;;;;;;;5052814;28;21029;-64
2022/05/02 12:52:47;;;;;;;7.07;6.27;;;;;;;;;;5052879;28;20432;-65
2022/05/02 12:55:14;;;;;;;8.03;7.23;;;;;;;;;;5052831;28;20417;-67
2022/05/02 13:00:32;;;;;;;8.90;7.30;;;;;;;;;;5052915;28;21019;-65
2022/05/02 13:03:15;;;;;;;7.57;6.90;;;;;;;;;;5052830;28;20468;-63
2022/05/02 13:05:47;;;;;;;9.60;7.00;;;;;;;;;;5052481;28;20511;-64
2022/05/02 13:08:14;;;;;;;7.90;7.27;;;;;;;;;;5052743;28;20757;-63
2022/05/02 13:10:43;;;;;;;7.20;6.60;;;;;;;;;;5052631;28;20885;-62
2022/05/02 13:13:10;;;;;;;8.10;6.80;;;;;;;;;;5052519;28;20776;-63
2022/05/02 13:15:41;;;;;;;7.17;6.00;;;;;;;;;;5052587;28;20437;-63
2022/05/02 13:18:08;;;;;;;8.90;6.23;;;;;;;;;;5034760;28;21042;-63
2022/05/02 13:20:34;;;;;;;7.20;6.00;;;;;;;;;;5052583;28;20427;-62
2022/05/02 13:23:02;;;;;;;7.20;5.50;;;;;;;;;;5052577;28;20495;-62
2022/05/02 13:25:46;;;;;;;6.63;6.03;;;;;;;;;;5052699;28;20404;-63
2022/05/02 13:28:18;;;;;;;9.20;5.23;;;;;;;;;;5052481;28;20565;-62
2022/05/02 13:30:46;;;;;;;6.30;5.50;;;;;;;;;;5052424;28;20471;-63
2022/05/02 13:33:13;;;;;;;6.07;5.57;;;;;;;;;;5052539;28;20416;-63
2022/05/02 13:35:41;;;;;;;5.87;5.37;;;;;;;;;;5052261;28;20925;-63
2022/05/02 13:38:11;;;;;;;6.20;5.60;;;;;;;;;;5052806;28;20494;-62
2022/05/02 13:40:37;;;;;;;6.17;5.60;;;;;;;;;;5055990;28;20826;-62
2022/05/02 13:43:03;;;;;;;5.73;5.23;;;;;;;;;;5056118;28;20505;-65
2022/05/02 13:45:48;;;;;;;6.47;5.87;;;;;;;;;;5055971;28;20471;-63
2022/05/02 13:48:15;;;;;;;6.00;5.50;;;;;;;;;;5055928;28;20527;-63
2022/05/02 13:50:52;;;;;;;5.60;5.13;;;;;;;;;;5056125;28;20760;-63
2022/05/02 13:53:28;;;;;;;7.27;6.37;;;;;;;;;;5055773;28;20459;-62
2022/05/02 13:55:59;;;;;;;6.93;5.20;;;;;;;;;;5055807;28;20818;-63
2022/05/02 13:58:25;;;;;;;5.97;5.37;;;;;;;;;;5055727;28;20471;-62
2022/05/02 14:03:55;;;;;;;6.27;5.77;;;;;;;;;;5055714;28;20920;-62
2022/05/02 14:06:29;;;;;;;7.47;6.73;;;;;;;;;;5055430;28;20540;-63
2022/05/02 14:08:57;;;;;;;5.80;5.20;;;;;;;;;;5055499;28;20535;-61
2022/05/02 14:11:27;;;;;;;6.37;5.87;;;;;;;;;;5055635;28;20452;-68
2022/05/02 14:14:08;;;;;;;6.20;5.70;;;;;;;;;;5055536;28;20479;-64
2022/05/02 14:16:35;;;;;;;6.13;5.63;;;;;;;;;;5055546;28;20739;-63
2022/05/02 14:19:02;;;;;;;7.30;5.90;;;;;;;;;;5055431;28;20485;-64
2022/05/02 14:21:37;;;;;;;6.23;5.73;;;;;;;;;;5055237;28;20413;-66
2022/05/02 14:24:03;;;;;;;8.43;5.53;;;;;;;;;;5055316;28;20397;-64
2022/05/02 14:26:31;;;;;;;6.87;6.10;;;;;;;;;;5055349;28;20409;-64
2022/05/02 14:28:58;;;;;;;5.50;5.00;;;;;;;;;;5055024;28;20480;-62
2022/05/02 14:31:35;;;;;;;5.27;4.73;;;;;;;;;;5055071;28;20479;-63
2022/05/02 14:34:08;;;;;;;5.60;5.20;;;;;;;;;;5055100;28;20467;-63
2022/05/02 14:36:36;;;;;;;5.70;5.20;;;;;;;;;;5037129;28;20413;-64
2022/05/02 14:39:03;;;;;;;5.27;4.87;;;;;;;;;;5055037;28;20449;-64
2022/05/02 14:41:29;;;;;;;6.27;5.50;;;;;;;;;;5054861;28;20744;-64
2022/05/02 14:43:56;;;;;;;6.97;6.27;;;;;;;;;;5054922;28;20433;-64
2022/05/02 14:46:23;;;;;;;5.80;5.30;;;;;;;;;;5036934;28;20412;-63
2022/05/02 14:48:49;;;;;;;5.67;5.17;;;;;;;;;;5054672;28;20469;-65
2022/05/02 14:51:17;;;;;;;7.13;6.43;;;;;;;;;;5053994;28;20409;-63
2022/05/02 14:53:47;;;;;;;5.30;4.90;;;;;;;;;;5054648;28;20457;-63
2022/05/02 14:56:14;;;;;;;5.73;5.33;;;;;;;;;;5054700;28;20405;-63
2022/05/02 14:58:41;;;;;;;5.57;5.10;;;;;;;;;;5054655;28;21181;-63
2022/05/02 15:01:10;;;;;;;6.17;5.50;;;;;;;;;;5054568;28;20433;-62
2022/05/02 15:03:40;;;;;;;6.80;5.63;;;;;;;;;;5054642;28;20406;-62
2022/05/02 15:06:09;;;;;;;6.43;5.47;;;;;;;;;;5054198;28;20457;-63
2022/05/02 15:08:51;;;;;;;5.83;5.17;;;;;;;;;;5054333;28;20504;-64
2022/05/02 15:11:35;;;;;;;6.20;5.60;;;;;;;;;;5054415;28;20809;-63